createdAt,value
2022-08-18T00:04:48.600Z,20.88
2022-08-18T00:09:54.479Z,20.74
2022-08-18T00:14:46.931Z,20.84
2022-08-18T00:19:48.359Z,20.84
2022-08-18T00:24:47.860Z,20.66
2022-08-18T00:29:46.690Z,20.58
2022-08-18T00:34:46.633Z,20.51
2022-08-18T00:39:48.092Z,20.52
2022-08-18T00:44:46.477Z,20.55
2022-08-18T00:49:46.427Z,20.52
2022-08-18T00:54:46.433Z,20.47
2022-08-18T00:59:46.316Z,20.28
2022-08-18T01:04:46.249Z,20.11
2022-08-18T01:09:46.184Z,20.07
2022-08-18T01:14:46.077Z,20.04
2022-08-18T01:19:46.034Z,19.94
2022-08-18T01:24:46.015Z,19.95
2022-08-18T01:29:45.896Z,19.82
2022-08-18T01:34:45.807Z,19.81
2022-08-18T01:41:06.299Z,19.85
2022-08-18T01:44:46.691Z,19.85
2022-08-18T01:49:45.678Z,19.70
2022-08-18T01:54:45.555Z,19.67
2022-08-18T01:59:45.488Z,19.73
2022-08-18T02:04:45.416Z,19.81
2022-08-18T02:09:45.411Z,19.79
2022-08-18T02:14:45.309Z,19.74
2022-08-18T02:19:45.235Z,19.73
2022-08-18T02:24:45.156Z,19.64
2022-08-18T02:29:45.141Z,19.48
2022-08-18T02:34:45.031Z,19.41
2022-08-18T02:39:45.009Z,19.27
2022-08-18T02:44:44.899Z,19.24
2022-08-18T02:49:44.846Z,19.07
2022-08-18T02:54:44.756Z,18.92
2022-08-18T02:59:46.887Z,18.96
2022-08-18T03:04:44.722Z,18.98
2022-08-18T03:09:44.590Z,19.00
2022-08-18T03:14:44.498Z,19.04
2022-08-18T03:19:44.439Z,18.92
2022-08-18T03:24:44.383Z,18.92
2022-08-18T03:29:44.312Z,18.88
2022-08-18T03:34:44.247Z,18.83
2022-08-18T03:39:44.276Z,18.75
2022-08-18T03:44:44.094Z,18.68
2022-08-18T03:49:44.079Z,18.62
2022-08-18T03:54:43.974Z,18.77
2022-08-18T03:59:43.943Z,18.92
2022-08-18T04:04:43.846Z,19.07
2022-08-18T04:09:43.781Z,19.15
2022-08-18T04:14:43.718Z,19.11
2022-08-18T04:19:58.257Z,19.04
2022-08-18T04:24:50.812Z,19.07
2022-08-18T04:29:50.609Z,19.07
2022-08-18T04:34:50.543Z,19.07
2022-08-18T04:39:50.550Z,19.09
2022-08-18T04:44:50.451Z,19.04
2022-08-18T04:49:50.464Z,19.11
2022-08-18T04:54:50.307Z,19.11
2022-08-18T04:59:50.195Z,19.07
2022-08-18T05:04:50.185Z,19.07
2022-08-18T05:09:50.078Z,19.04
2022-08-18T05:14:50.009Z,19.09
2022-08-18T05:19:49.962Z,19.21
2022-08-18T05:24:49.898Z,19.31
2022-08-18T05:29:51.542Z,19.34
2022-08-18T05:34:49.742Z,19.37
2022-08-18T05:39:50.425Z,19.44
2022-08-18T05:44:49.637Z,19.47
2022-08-18T05:49:49.522Z,19.41
2022-08-18T05:54:49.506Z,19.48
2022-08-18T05:59:49.430Z,19.49
2022-08-18T06:04:49.373Z,19.56
2022-08-18T06:09:49.258Z,19.62
2022-08-18T06:14:49.190Z,19.67
2022-08-18T06:19:49.136Z,19.73
2022-08-18T06:24:49.068Z,19.76
2022-08-18T06:29:49.371Z,19.70
2022-08-18T06:34:48.972Z,19.73
2022-08-18T06:39:48.933Z,19.77
2022-08-18T06:44:48.798Z,19.86
2022-08-18T06:49:48.791Z,19.95
2022-08-18T06:54:51.465Z,20.11
2022-08-18T06:59:48.602Z,20.37
2022-08-18T07:04:48.563Z,20.62
2022-08-18T07:09:48.528Z,20.75
2022-08-18T07:14:48.399Z,20.81
2022-08-18T07:19:48.348Z,20.69
2022-08-18T07:24:48.270Z,20.65
2022-08-18T07:29:48.261Z,20.65
2022-08-18T07:34:48.128Z,20.58
2022-08-18T07:39:49.161Z,20.62
2022-08-18T07:44:48.018Z,20.65
2022-08-18T07:50:16.509Z,20.85
2022-08-18T07:54:50.357Z,21.00
2022-08-18T07:59:47.818Z,20.96
2022-08-18T08:04:47.780Z,21.09
2022-08-18T08:09:51.799Z,21.33
2022-08-18T08:14:47.633Z,21.45
2022-08-18T08:20:02.861Z,21.51
2022-08-18T08:24:48.489Z,21.55
2022-08-18T08:29:47.476Z,21.61
2022-08-18T08:34:47.373Z,21.45
2022-08-18T08:39:47.420Z,21.39
2022-08-18T08:44:58.912Z,21.70
2022-08-18T08:49:54.771Z,22.00
2022-08-18T08:54:48.075Z,22.17
2022-08-18T08:59:47.053Z,22.38
2022-08-18T09:04:55.743Z,22.39
2022-08-18T09:09:47.948Z,22.11
2022-08-18T09:14:46.838Z,22.08
2022-08-18T09:19:47.119Z,21.93
2022-08-18T09:24:46.696Z,22.26
2022-08-18T09:29:46.642Z,22.73
2022-08-18T09:34:46.704Z,23.18
2022-08-18T09:39:51.677Z,23.69
2022-08-18T09:44:47.429Z,23.65
2022-08-18T09:49:47.843Z,23.96
2022-08-18T09:54:47.308Z,24.57
2022-08-18T09:59:46.238Z,24.76
2022-08-18T10:04:46.937Z,24.61
2022-08-18T10:09:46.112Z,24.47
2022-08-18T10:14:46.060Z,24.63
2022-08-18T10:19:46.016Z,24.88
2022-08-18T10:24:45.929Z,24.80
2022-08-18T10:29:45.869Z,24.35
2022-08-18T10:34:51.792Z,24.17
2022-08-18T10:39:46.781Z,25.08
2022-08-18T10:44:45.659Z,25.21
2022-08-18T10:49:46.928Z,24.48
2022-08-18T10:54:51.063Z,24.38
2022-08-18T10:59:50.518Z,24.69
2022-08-18T11:04:46.379Z,25.62
2022-08-18T11:09:50.816Z,27.75
2022-08-18T11:14:46.261Z,27.86
2022-08-18T11:19:45.200Z,27.93
2022-08-18T11:24:45.111Z,27.44
2022-08-18T11:29:45.064Z,28.07
2022-08-18T11:34:45.723Z,28.32
2022-08-18T11:39:45.977Z,28.62
2022-08-18T11:44:44.849Z,28.45
2022-08-18T11:49:44.794Z,27.08
2022-08-18T11:54:50.799Z,26.33
2022-08-18T11:59:54.672Z,25.43
2022-08-18T12:04:45.597Z,24.88
2022-08-18T12:10:18.039Z,25.01
2022-08-18T12:14:45.482Z,25.69
2022-08-18T12:19:44.417Z,26.02
2022-08-18T12:24:44.394Z,26.37
2022-08-18T12:29:45.122Z,26.90
2022-08-18T12:34:44.207Z,26.63
2022-08-18T12:39:44.322Z,26.48
2022-08-18T12:44:44.100Z,26.41
2022-08-18T12:49:43.992Z,27.03
2022-08-18T12:54:55.507Z,26.99
2022-08-18T12:59:44.964Z,27.15
2022-08-18T13:04:43.856Z,27.48
2022-08-18T13:09:52.541Z,27.65
2022-08-18T13:14:44.838Z,27.89
2022-08-18T13:19:43.676Z,28.19
2022-08-18T13:24:43.554Z,28.67
2022-08-18T13:29:43.533Z,28.14
2022-08-18T13:34:43.437Z,28.10
2022-08-18T13:39:43.912Z,27.75
2022-08-18T13:44:43.341Z,27.27
2022-08-18T13:49:58.984Z,27.22
2022-08-18T13:54:44.216Z,27.36
2022-08-18T13:59:46.790Z,27.22
2022-08-18T14:04:43.050Z,27.37
2022-08-18T14:09:43.024Z,27.51
2022-08-18T14:14:43.022Z,28.07
2022-08-18T14:19:42.840Z,28.30
2022-08-18T14:24:42.776Z,28.27
2022-08-18T14:29:47.280Z,28.66
2022-08-18T14:34:50.647Z,28.45
2022-08-18T14:39:50.195Z,27.96
2022-08-18T14:44:43.555Z,27.87
2022-08-18T14:49:42.983Z,27.36
2022-08-18T14:54:46.378Z,27.29
2022-08-18T14:59:43.303Z,27.48
2022-08-18T15:04:55.915Z,27.65
2022-08-18T15:09:43.229Z,27.70
2022-08-18T15:14:42.099Z,27.25
2022-08-18T15:19:59.661Z,27.14
2022-08-18T15:24:42.984Z,27.03
2022-08-18T15:29:41.910Z,26.99
2022-08-18T15:34:46.447Z,26.60
2022-08-18T15:39:42.870Z,26.41
2022-08-18T15:44:41.807Z,26.45
2022-08-18T15:49:41.653Z,26.33
2022-08-18T15:54:42.367Z,26.65
2022-08-18T15:59:41.541Z,26.74
2022-08-18T16:04:44.991Z,26.84
2022-08-18T16:09:41.368Z,26.65
2022-08-18T16:14:41.348Z,26.48
2022-08-18T16:19:41.344Z,26.41
2022-08-18T16:24:41.220Z,26.15
2022-08-18T16:29:41.210Z,25.93
2022-08-18T16:34:41.096Z,25.96
2022-08-18T16:39:41.055Z,25.87
2022-08-18T16:44:40.935Z,25.77
2022-08-18T16:49:40.982Z,25.77
2022-08-18T16:54:40.803Z,25.84
2022-08-18T16:59:40.744Z,25.73
2022-08-18T17:04:40.757Z,25.72
2022-08-18T17:09:40.621Z,25.60
2022-08-18T17:14:40.646Z,25.48
2022-08-18T17:19:40.475Z,25.31
2022-08-18T17:24:49.527Z,25.08
2022-08-18T17:29:41.372Z,24.98
2022-08-18T17:34:40.285Z,24.92
2022-08-18T17:39:40.292Z,24.81
2022-08-18T17:44:46.368Z,24.74
2022-08-18T17:49:41.290Z,24.69
2022-08-18T17:54:40.102Z,24.54
2022-08-18T17:59:45.746Z,24.38
2022-08-18T18:04:40.906Z,24.28
2022-08-18T18:09:39.829Z,24.14
2022-08-18T18:14:39.863Z,24.06
2022-08-18T18:19:39.751Z,23.98
2022-08-18T18:24:39.687Z,23.87
2022-08-18T18:29:39.594Z,23.81
2022-08-18T18:34:39.664Z,23.73
2022-08-18T18:39:39.526Z,23.58
2022-08-18T18:44:39.371Z,23.39
2022-08-18T18:49:39.330Z,23.23
2022-08-18T18:54:39.245Z,23.08
2022-08-18T18:59:39.214Z,22.99
2022-08-18T19:04:39.118Z,22.83
2022-08-18T19:09:39.051Z,22.66
2022-08-18T19:14:39.028Z,22.57
2022-08-18T19:19:39.449Z,22.45
2022-08-18T19:24:38.992Z,22.30
2022-08-18T19:29:38.790Z,22.28
2022-08-18T19:34:51.085Z,22.26
2022-08-18T19:39:39.707Z,22.25
2022-08-18T19:44:38.591Z,22.23
2022-08-18T19:49:38.538Z,22.15
2022-08-18T19:54:38.444Z,22.04
2022-08-18T19:59:38.426Z,21.95
2022-08-18T20:04:38.338Z,21.89
2022-08-18T20:09:38.277Z,21.85
2022-08-18T20:14:38.405Z,21.88
2022-08-18T20:19:38.134Z,21.88
2022-08-18T20:24:38.462Z,21.77
2022-08-18T20:29:38.000Z,21.67
2022-08-18T20:34:37.940Z,21.54
2022-08-18T20:39:38.042Z,21.51
2022-08-18T20:44:37.803Z,21.48
2022-08-18T20:49:37.748Z,21.46
2022-08-18T20:54:37.755Z,21.46
2022-08-18T20:59:37.615Z,21.40
2022-08-18T21:04:42.486Z,21.39
2022-08-18T21:09:38.771Z,21.33
2022-08-18T21:14:37.384Z,21.22
2022-08-18T21:19:37.347Z,21.14
2022-08-18T21:24:37.278Z,21.05
2022-08-18T21:29:49.235Z,20.96
2022-08-18T21:34:41.728Z,20.81
2022-08-18T21:39:38.363Z,20.75
2022-08-18T21:44:37.052Z,20.70
2022-08-18T21:49:36.982Z,20.70
2022-08-18T21:54:37.423Z,20.69
2022-08-18T21:59:36.921Z,20.62
2022-08-18T22:04:36.763Z,20.62
2022-08-18T22:09:36.671Z,20.63
2022-08-18T22:14:55.242Z,20.52
2022-08-18T22:19:37.534Z,20.37
2022-08-18T22:24:36.446Z,20.22
2022-08-18T22:29:36.430Z,20.19
2022-08-18T22:34:37.359Z,20.26
2022-08-18T22:39:36.328Z,20.37
2022-08-18T22:44:36.222Z,20.37
2022-08-18T22:49:36.159Z,20.36
2022-08-18T22:54:36.083Z,20.24
2022-08-18T22:59:36.014Z,20.11
2022-08-18T23:04:36.955Z,20.10
2022-08-18T23:09:35.914Z,20.16
2022-08-18T23:14:35.832Z,20.18
2022-08-18T23:19:35.734Z,20.16
2022-08-18T23:24:35.726Z,20.21
2022-08-18T23:29:35.620Z,20.19
2022-08-18T23:34:35.654Z,20.18
2022-08-18T23:39:35.535Z,19.96
2022-08-18T23:44:35.409Z,19.73
2022-08-18T23:49:36.035Z,19.58
2022-08-18T23:54:35.308Z,19.56
2022-08-18T23:59:35.210Z,19.69
